createdAt,value
2018-12-18T00:00:37.296Z,81.35
2018-12-18T00:05:43.385Z,81.55
2018-12-18T00:10:51.721Z,80.68
2018-12-18T00:15:55.961Z,81.48
2018-12-18T00:20:59.695Z,80.74
2018-12-18T00:26:03.559Z,79.82
2018-12-18T00:31:07.362Z,79.15
2018-12-18T00:36:11.241Z,80.04
2018-12-18T00:41:15.179Z,78.82
2018-12-18T00:46:19.068Z,79.32
2018-12-18T00:51:22.919Z,79.92
2018-12-18T00:56:26.827Z,80.45
2018-12-18T01:01:30.760Z,80.85
2018-12-18T01:06:34.621Z,80.95
2018-12-18T01:11:38.819Z,80.14
2018-12-18T01:16:42.613Z,80.53
2018-12-18T01:21:46.426Z,80.89
2018-12-18T01:26:50.104Z,81.70
2018-12-18T01:31:54.115Z,82.17
2018-12-18T01:36:57.886Z,82.89
2018-12-18T01:42:01.638Z,82.48
2018-12-18T01:47:05.364Z,82.33
2018-12-18T01:52:09.252Z,82.55
2018-12-18T01:57:13.126Z,82.43
2018-12-18T02:02:17.452Z,81.44
2018-12-18T02:07:21.269Z,81.62
2018-12-18T02:12:25.344Z,80.78
2018-12-18T02:17:29.358Z,79.89
2018-12-18T02:22:33.463Z,79.55
2018-12-18T02:27:37.338Z,79.76
2018-12-18T02:32:41.531Z,79.73
2018-12-18T02:37:46.651Z,80.26
2018-12-18T02:42:50.572Z,80.06
2018-12-18T02:47:54.319Z,79.58
2018-12-18T02:52:58.181Z,80.10
2018-12-18T02:58:02.214Z,80.35
2018-12-18T03:03:06.154Z,79.70
2018-12-18T03:08:12.042Z,81.58
2018-12-18T03:13:16.094Z,81.24
2018-12-18T03:18:19.919Z,81.86
2018-12-18T03:23:23.683Z,83.01
2018-12-18T03:28:27.850Z,83.38
2018-12-18T03:33:32.093Z,81.79
2018-12-18T03:38:35.990Z,80.38
2018-12-18T03:43:39.777Z,81.91
2018-12-18T03:48:43.645Z,81.77
2018-12-18T03:53:47.466Z,79.28
2018-12-18T03:58:52.455Z,77.35
2018-12-18T04:03:56.513Z,78.68
2018-12-18T04:09:01.870Z,77.52
2018-12-18T04:14:07.843Z,76.52
2018-12-18T04:19:13.617Z,78.16
2018-12-18T04:24:17.587Z,78.00
2018-12-18T04:29:21.456Z,77.29
2018-12-18T04:34:25.544Z,77.73
2018-12-18T04:39:29.355Z,77.49
2018-12-18T04:44:33.249Z,77.92
2018-12-18T04:49:37.062Z,76.84
2018-12-18T04:54:40.921Z,77.70
2018-12-18T04:59:45.715Z,77.30
2018-12-18T05:04:50.518Z,78.41
2018-12-18T05:09:54.686Z,77.63
2018-12-18T05:14:58.800Z,77.82
2018-12-18T05:20:03.199Z,77.94
2018-12-18T05:25:07.209Z,78.26
2018-12-18T05:30:11.118Z,77.08
2018-12-18T05:35:16.053Z,76.53
2018-12-18T05:40:20.116Z,75.83
2018-12-18T05:45:23.907Z,75.16
2018-12-18T05:50:28.597Z,74.93
2018-12-18T05:55:32.484Z,75.08
2018-12-18T06:00:38.148Z,74.17
2018-12-18T06:05:41.949Z,74.14
2018-12-18T06:10:46.605Z,75.48
2018-12-18T06:15:50.450Z,75.14
2018-12-18T06:20:54.244Z,76.26
2018-12-18T06:25:58.224Z,76.12
2018-12-18T06:31:02.320Z,76.59
2018-12-18T06:36:06.143Z,75.43
2018-12-18T06:41:09.981Z,75.92
2018-12-18T06:46:13.793Z,75.62
2018-12-18T06:51:17.552Z,75.18
2018-12-18T06:56:22.667Z,73.23
2018-12-18T07:01:26.497Z,73.38
2018-12-18T07:06:30.444Z,71.93
2018-12-18T07:11:34.285Z,72.28
2018-12-18T07:16:38.765Z,72.36
2018-12-18T07:21:43.032Z,71.97
2018-12-18T07:26:46.825Z,71.19
2018-12-18T07:31:50.643Z,71.46
2018-12-18T07:36:54.461Z,70.50
2018-12-18T07:41:58.511Z,69.69
2018-12-18T07:47:02.522Z,69.56
2018-12-18T07:52:06.614Z,69.44
2018-12-18T07:57:10.632Z,69.07
2018-12-18T08:02:14.448Z,68.03
2018-12-18T08:07:18.388Z,69.00
2018-12-18T08:12:25.718Z,68.79
2018-12-18T08:17:29.665Z,68.37
2018-12-18T08:22:33.520Z,69.01
2018-12-18T08:27:37.807Z,68.07
2018-12-18T08:32:42.186Z,68.64
2018-12-18T08:37:46.146Z,68.67
2018-12-18T08:42:49.942Z,68.93
2018-12-18T08:47:53.799Z,70.17
2018-12-18T08:52:57.604Z,69.93
2018-12-18T08:58:01.566Z,70.16
2018-12-18T09:03:05.449Z,70.14
2018-12-18T09:08:09.516Z,69.77
2018-12-18T09:13:13.641Z,70.06
2018-12-18T09:18:17.635Z,69.85
2018-12-18T09:23:21.428Z,70.30
2018-12-18T09:28:25.338Z,69.82
2018-12-18T09:33:29.171Z,70.17
2018-12-18T09:38:38.677Z,70.81
2018-12-18T09:43:48.038Z,70.31
2018-12-18T09:48:51.772Z,71.25
2018-12-18T09:53:55.566Z,71.38
2018-12-18T09:58:59.474Z,71.12
2018-12-18T10:04:03.323Z,71.10
2018-12-18T10:09:09.798Z,70.88
2018-12-18T10:14:13.829Z,70.34
2018-12-18T10:19:17.605Z,70.84
2018-12-18T10:24:21.472Z,70.39
2018-12-18T10:29:25.142Z,70.92
2018-12-18T10:34:28.979Z,70.63
2018-12-18T10:39:32.976Z,70.08
2018-12-18T10:44:36.946Z,69.22
2018-12-18T10:49:40.876Z,69.84
2018-12-18T10:54:44.742Z,69.34
2018-12-18T10:59:48.753Z,69.05
2018-12-18T11:04:52.639Z,69.48
2018-12-18T11:09:56.592Z,69.35
2018-12-18T11:15:00.727Z,69.34
2018-12-18T11:20:05.968Z,69.48
2018-12-18T11:25:10.015Z,69.85
2018-12-18T11:30:14.101Z,69.89
2018-12-18T11:35:18.113Z,69.39
2018-12-18T11:40:22.418Z,68.72
2018-12-18T11:45:26.349Z,69.01
2018-12-18T11:50:30.222Z,69.61
2018-12-18T11:55:34.234Z,69.46
2018-12-18T12:00:41.596Z,70.00
2018-12-18T12:05:45.505Z,69.44
2018-12-18T12:10:49.662Z,69.94
2018-12-18T12:15:53.875Z,70.43
2018-12-18T12:20:57.953Z,70.76
2018-12-18T12:26:06.337Z,71.59
2018-12-18T12:31:10.335Z,72.39
2018-12-18T12:36:14.452Z,72.84
2018-12-18T12:41:18.498Z,72.88
2018-12-18T12:46:24.457Z,73.42
2018-12-18T12:51:28.391Z,73.26
2018-12-18T12:56:32.300Z,73.05
2018-12-18T13:01:41.962Z,72.75
2018-12-18T13:06:42.194Z,72.80
2018-12-18T13:11:46.097Z,73.40
2018-12-18T13:16:50.052Z,73.59
2018-12-18T13:21:54.513Z,73.27
2018-12-18T13:26:58.648Z,73.96
2018-12-18T13:32:02.971Z,73.82
2018-12-18T13:37:07.009Z,73.52
2018-12-18T13:42:11.139Z,72.61
2018-12-18T13:47:15.145Z,72.17
2018-12-18T13:52:19.359Z,71.70
2018-12-18T13:57:23.207Z,71.26
2018-12-18T14:02:27.154Z,70.66
2018-12-18T14:07:31.474Z,71.15
2018-12-18T14:12:35.443Z,70.55
2018-12-18T14:17:39.895Z,70.75
2018-12-18T14:22:43.798Z,70.80
2018-12-18T14:27:47.744Z,70.40
2018-12-18T14:32:51.898Z,70.00
2018-12-18T14:37:55.758Z,70.10
2018-12-18T14:42:59.969Z,69.53
2018-12-18T14:48:03.900Z,69.60
2018-12-18T14:53:07.818Z,69.80
2018-12-18T14:58:11.657Z,70.23
2018-12-18T15:03:15.465Z,70.98
2018-12-18T15:08:19.301Z,70.89
2018-12-18T15:13:23.189Z,71.97
2018-12-18T15:18:27.140Z,71.93
2018-12-18T15:23:31.017Z,71.37
2018-12-18T15:28:34.790Z,72.57
2018-12-18T15:33:38.817Z,71.90
2018-12-18T15:38:42.597Z,70.93
2018-12-18T15:43:46.646Z,71.59
2018-12-18T15:48:50.486Z,70.13
2018-12-18T15:53:54.467Z,69.78
2018-12-18T15:58:58.306Z,69.09
2018-12-18T16:04:02.219Z,68.90
2018-12-18T16:09:08.117Z,71.23
2018-12-18T16:14:14.192Z,69.77
2018-12-18T16:19:18.596Z,69.42
2018-12-18T16:24:23.898Z,68.53
2018-12-18T16:29:28.939Z,67.66
2018-12-18T16:34:32.773Z,68.26
2018-12-18T16:39:37.132Z,67.01
2018-12-18T16:44:42.057Z,67.51
2018-12-18T16:49:46.210Z,66.73
2018-12-18T16:54:50.015Z,66.91
2018-12-18T16:59:54.780Z,66.07
2018-12-18T17:04:58.473Z,66.01
2018-12-18T17:10:02.524Z,66.18
2018-12-18T17:15:06.757Z,65.92
2018-12-18T17:20:10.789Z,66.12
2018-12-18T17:25:16.216Z,66.41
2018-12-18T17:30:20.398Z,66.27
2018-12-18T17:35:25.274Z,65.90
2018-12-18T17:40:30.311Z,65.91
2018-12-18T17:45:36.036Z,65.83
2018-12-18T17:50:42.286Z,66.72
2018-12-18T17:55:46.308Z,67.17
2018-12-18T18:00:51.175Z,67.41
2018-12-18T18:05:55.535Z,66.15
2018-12-18T18:11:02.580Z,67.27
2018-12-18T18:16:07.470Z,67.94
2018-12-18T18:21:11.486Z,67.66
2018-12-18T18:26:16.580Z,68.67
2018-12-18T18:31:20.708Z,68.09
2018-12-18T18:36:24.730Z,68.33
2018-12-18T18:41:28.540Z,67.84
2018-12-18T18:46:33.619Z,68.32
2018-12-18T18:51:37.855Z,68.84
2018-12-18T18:56:43.223Z,67.57
2018-12-18T19:01:47.030Z,67.08
2018-12-18T19:06:51.622Z,67.37
2018-12-18T19:11:55.989Z,67.54
2018-12-18T19:17:00.023Z,66.86
2018-12-18T19:22:03.961Z,66.39
2018-12-18T19:27:07.684Z,66.31
2018-12-18T19:32:11.583Z,66.79
2018-12-18T19:37:15.611Z,67.13
2018-12-18T19:42:19.885Z,67.19
2018-12-18T19:47:23.940Z,65.68
2018-12-18T19:52:28.039Z,66.36
2018-12-18T19:57:31.870Z,66.34
2018-12-18T20:02:35.809Z,66.99
2018-12-18T20:07:40.144Z,66.72
2018-12-18T20:12:44.129Z,66.25
2018-12-18T20:17:48.394Z,67.04
2018-12-18T20:22:52.561Z,65.97
2018-12-18T20:27:57.754Z,66.55
2018-12-18T20:33:01.919Z,66.71
2018-12-18T20:38:06.491Z,66.41
2018-12-18T20:43:10.421Z,66.69
2018-12-18T20:48:14.591Z,66.64
2018-12-18T20:53:18.436Z,66.02
2018-12-18T20:58:22.277Z,67.01
2018-12-18T21:03:26.317Z,66.49
2018-12-18T21:08:32.344Z,66.22
2018-12-18T21:13:36.099Z,66.13
2018-12-18T21:18:40.301Z,65.06
2018-12-18T21:23:44.435Z,65.32
2018-12-18T21:28:48.371Z,66.25
2018-12-18T21:33:52.269Z,66.31
2018-12-18T21:38:56.355Z,67.06
2018-12-18T21:44:00.345Z,66.54
2018-12-18T21:49:04.361Z,66.48
2018-12-18T21:54:08.147Z,65.95
2018-12-18T21:59:12.136Z,66.42
2018-12-18T22:04:15.980Z,65.92
2018-12-18T22:09:19.686Z,64.88
2018-12-18T22:14:23.569Z,65.14
2018-12-18T22:19:27.548Z,66.24
2018-12-18T22:24:31.633Z,65.94
2018-12-18T22:29:37.417Z,65.29
2018-12-18T22:34:41.154Z,65.01
2018-12-18T22:39:44.879Z,65.43
2018-12-18T22:44:48.613Z,65.66
2018-12-18T22:49:52.568Z,64.84
2018-12-18T22:54:56.557Z,66.02
2018-12-18T23:00:00.396Z,65.77
2018-12-18T23:05:04.693Z,65.57
2018-12-18T23:10:08.920Z,65.95
2018-12-18T23:15:12.803Z,66.14
2018-12-18T23:20:16.769Z,65.46
2018-12-18T23:25:20.832Z,66.45
2018-12-18T23:30:26.787Z,65.89
2018-12-18T23:35:30.687Z,66.76
2018-12-18T23:40:34.499Z,65.28
2018-12-18T23:45:38.595Z,65.67
2018-12-18T23:50:42.429Z,65.15
2018-12-18T23:55:46.256Z,65.67
